Time;durP1;ratioP1;P1;durP2;ratioP2;P2;SDS_P1;SDS_P2;PMS_P1;PMS_P2;Temp;Humidity;BMP_temperature;BMP_pressure;BME280_temperature;BME280_humidity;BME280_pressure;Samples;Min_cycle;Max_cycle;Signal;HPM_P1;HPM_P2
2023/06/01 00:01:42;;;;;;;13.98;3.78;;;;;;;14.57;92.88;101370.50;5065266;28;20051;-69
2023/06/01 00:04:09;;;;;;;21.45;3.53;;;;;;;14.48;93.03;101369.00;5100172;28;20032;-69
2023/06/01 00:06:35;;;;;;;18.90;4.10;;;;;;;14.51;93.13;101374.88;5082488;28;20582;-68
2023/06/01 00:09:02;;;;;;;14.48;3.20;;;;;;;14.44;92.43;101379.44;5102131;28;20115;-69
2023/06/01 00:11:27;;;;;;;16.92;3.10;;;;;;;14.27;92.20;101364.66;5083326;28;20026;-68
2023/06/01 00:13:53;;;;;;;12.00;3.38;;;;;;;14.14;92.14;101365.53;5083252;28;20091;-68
2023/06/01 00:16:18;;;;;;;14.55;3.10;;;;;;;14.15;91.92;101366.34;5101210;28;20039;-68
2023/06/01 00:18:44;;;;;;;14.95;3.35;;;;;;;14.12;92.26;101356.75;5101502;28;20024;-68
2023/06/01 00:21:10;;;;;;;13.90;3.15;;;;;;;14.09;91.84;101352.59;5101108;28;20032;-68
2023/06/01 00:23:35;;;;;;;12.20;2.80;;;;;;;13.98;91.70;101361.34;5101949;28;20027;-68
2023/06/01 00:26:02;;;;;;;10.77;2.90;;;;;;;13.86;91.53;101363.00;5101976;28;20031;-68
2023/06/01 00:28:27;;;;;;;11.68;2.63;;;;;;;13.68;91.12;101343.84;5101366;28;20031;-69
2023/06/01 00:30:53;;;;;;;13.02;2.83;;;;;;;13.65;90.69;101352.38;5099372;28;20440;-69
2023/06/01 00:33:21;;;;;;;10.45;2.97;;;;;;;13.73;90.70;101360.28;5081448;28;20020;-69
2023/06/01 00:35:47;;;;;;;15.13;3.33;;;;;;;13.55;90.78;101328.44;5064325;28;20028;-68
2023/06/01 00:38:13;;;;;;;19.10;3.50;;;;;;;13.78;90.90;101355.94;5081436;28;20031;-69
2023/06/01 00:40:38;;;;;;;15.38;3.22;;;;;;;13.83;90.94;101364.25;5084250;28;20077;-69
2023/06/01 00:43:04;;;;;;;10.70;2.90;;;;;;;13.85;91.02;101358.63;5104152;28;20023;-69
2023/06/01 00:45:30;;;;;;;11.18;2.67;;;;;;;13.81;91.23;101355.50;5071862;28;20048;-68
2023/06/01 00:47:55;;;;;;;10.00;2.92;;;;;;;13.72;90.76;101361.34;5097605;28;20106;-68
2023/06/01 00:50:22;;;;;;;7.72;2.63;;;;;;;13.55;90.58;101347.38;5096848;28;20036;-68
2023/06/01 00:52:50;;;;;;;11.20;3.17;;;;;;;13.63;90.65;101357.97;5094559;28;20035;-68
2023/06/01 00:55:16;;;;;;;11.23;2.95;;;;;;;13.65;90.53;101360.50;5079725;28;20468;-69
2023/06/01 00:57:43;;;;;;;15.80;3.25;;;;;;;13.72;91.08;101355.94;5079886;28;20034;-69
2023/06/01 01:00:10;;;;;;;13.40;3.40;;;;;;;13.68;90.99;101350.09;5099587;28;20024;-68
2023/06/01 01:02:41;;;;;;;16.65;3.55;;;;;;;13.75;91.41;101358.22;5083937;28;20056;-68
2023/06/01 01:05:11;;;;;;;14.25;3.10;;;;;;;13.80;91.60;101358.41;5103219;28;20028;-68
2023/06/01 01:07:49;;;;;;;14.20;3.20;;;;;;;13.89;92.02;101356.34;5078794;28;20024;-68
2023/06/01 01:10:38;;;;;;;13.65;3.70;;;;;;;13.92;92.29;101355.94;5080484;28;20030;-69
2023/06/01 01:13:22;;;;;;;10.00;3.05;;;;;;;13.95;92.39;101353.66;5102903;28;20024;-68
2023/06/01 01:15:47;;;;;;;11.80;3.38;;;;;;;13.99;92.56;101357.59;5103438;28;20028;-67
2023/06/01 01:18:21;;;;;;;17.50;3.75;;;;;;;13.98;93.05;101350.53;5103868;28;20102;-69
2023/06/01 01:20:58;;;;;;;9.60;2.53;;;;;;;13.90;93.16;101350.72;5084919;28;20036;-68
2023/06/01 01:23:48;;;;;;;11.73;3.17;;;;;;;13.79;92.91;101356.75;5085898;28;20041;-68
2023/06/01 01:26:51;;;;;;;9.10;2.35;;;;;;;13.66;92.73;101349.47;5102731;28;20031;-68
2023/06/01 01:29:19;;;;;;;13.10;3.15;;;;;;;13.57;92.73;101343.41;5100640;28;20533;-68
2023/06/01 01:31:48;;;;;;;11.05;3.03;;;;;;;13.66;92.92;101345.94;5083158;28;20100;-68
2023/06/01 01:34:13;;;;;;;17.10;3.80;;;;;;;13.67;92.86;101347.59;5079927;28;20407;-68
2023/06/01 01:36:41;;;;;;;16.10;3.65;;;;;;;13.52;92.98;101329.69;5092699;28;20036;-68
2023/06/01 01:39:06;;;;;;;13.63;3.08;;;;;;;13.55;92.89;101345.50;5062816;28;20096;-68
2023/06/01 01:41:32;;;;;;;13.63;3.22;;;;;;;13.42;93.25;101342.78;5080011;28;20036;-68
2023/06/01 01:43:59;;;;;;;14.43;3.85;;;;;;;13.44;93.27;101340.66;5098206;28;20431;-68
2023/06/01 01:46:25;;;;;;;18.23;3.60;;;;;;;13.51;93.69;101333.44;5097098;28;20027;-68
2023/06/01 01:48:59;;;;;;;12.07;2.97;;;;;;;13.56;93.69;101328.22;5078618;28;20070;-68
2023/06/01 01:51:32;;;;;;;14.80;3.70;;;;;;;13.55;93.76;101333.84;5097454;28;20024;-69
2023/06/01 01:53:59;;;;;;;15.40;3.72;;;;;;;13.63;93.97;101339.88;5100225;28;20024;-68
2023/06/01 01:56:26;;;;;;;10.70;3.00;;;;;;;13.54;93.62;101337.56;5100513;28;20224;-69
2023/06/01 01:58:52;;;;;;;10.07;3.22;;;;;;;13.48;94.01;101339.25;5081752;28;20031;-68
2023/06/01 02:01:18;;;;;;;18.60;4.00;;;;;;;13.46;94.11;101329.66;5097376;28;20161;-68
2023/06/01 02:03:44;;;;;;;13.43;4.10;;;;;;;13.48;94.37;101331.13;5081143;28;20106;-68
2023/06/01 02:06:09;;;;;;;14.27;4.57;;;;;;;13.55;94.46;101326.56;5099310;28;20404;-68
2023/06/01 02:08:35;;;;;;;17.00;4.20;;;;;;;13.63;94.77;101339.06;5081421;28;20028;-68
2023/06/01 02:11:00;;;;;;;17.25;4.00;;;;;;;13.69;94.85;101322.00;5081707;28;20040;-67
2023/06/01 02:13:25;;;;;;;19.83;5.55;;;;;;;13.74;94.85;101326.78;5099047;28;20406;-68
2023/06/01 02:15:51;;;;;;;20.63;5.00;;;;;;;13.76;94.94;101322.84;5099996;28;20123;-69
2023/06/01 02:18:17;;;;;;;14.90;4.03;;;;;;;13.75;95.31;101329.28;5099477;28;20463;-68
2023/06/01 02:20:45;;;;;;;23.25;4.43;;;;;;;13.76;95.25;101327.41;5046830;28;20032;-68
2023/06/01 02:23:10;;;;;;;10.43;3.80;;;;;;;13.70;95.13;101323.66;5097917;28;20024;-68
2023/06/01 02:25:36;;;;;;;14.65;4.22;;;;;;;13.69;95.55;101318.47;5096682;28;20039;-69
2023/06/01 02:28:01;;;;;;;16.77;4.35;;;;;;;13.69;95.33;101318.47;5080465;28;20036;-68
2023/06/01 02:30:27;;;;;;;14.90;4.05;;;;;;;13.65;95.37;101319.94;5085827;28;20510;-68
2023/06/01 02:32:52;;;;;;;12.50;3.85;;;;;;;13.53;95.57;101315.13;5076574;28;20032;-68
2023/06/01 02:35:18;;;;;;;14.88;3.88;;;;;;;13.22;95.63;101274.28;5075802;28;20541;-68
2023/06/01 02:37:43;;;;;;;12.07;3.50;;;;;;;13.63;95.60;101331.78;5059857;28;20589;-68
2023/06/01 02:40:12;;;;;;;18.40;4.15;;;;;;;13.67;95.61;101331.34;5061676;28;20039;-69
2023/06/01 02:42:38;;;;;;;14.20;3.75;;;;;;;13.42;95.39;101275.19;5080250;28;20082;-68
2023/06/01 02:45:06;;;;;;;17.23;3.50;;;;;;;13.86;94.51;101327.84;5061845;28;20035;-68
2023/06/01 02:47:31;;;;;;;11.85;3.88;;;;;;;13.93;94.11;101331.38;5079636;28;20024;-68
2023/06/01 02:49:57;;;;;;;11.60;3.15;;;;;;;14.09;93.30;101319.28;5079594;28;20051;-68
2023/06/01 02:52:22;;;;;;;8.45;2.85;;;;;;;14.25;92.30;101318.84;5061101;28;20593;-69
2023/06/01 02:54:48;;;;;;;12.85;3.60;;;;;;;14.32;91.76;101321.56;5060912;28;20032;-68
2023/06/01 02:57:13;;;;;;;12.30;3.47;;;;;;;14.41;91.01;101320.28;5078576;28;20059;-68
2023/06/01 02:59:38;;;;;;;12.02;3.72;;;;;;;14.52;90.40;101308.00;5025895;28;20556;-68
2023/06/01 03:02:04;;;;;;;14.43;3.60;;;;;;;14.76;89.48;101320.00;5076212;28;20052;-68
2023/06/01 03:04:32;;;;;;;10.65;3.60;;;;;;;14.73;88.82;101306.88;5076853;28;20490;-68
2023/06/01 03:06:58;;;;;;;9.32;3.30;;;;;;;14.82;88.57;101310.19;5043116;28;20025;-68
2023/06/01 03:09:24;;;;;;;10.30;3.30;;;;;;;15.12;88.06;101322.13;5059308;28;20028;-69
2023/06/01 03:11:50;;;;;;;7.22;3.05;;;;;;;15.02;87.31;101305.50;5078925;28;20452;-69
2023/06/01 03:14:15;;;;;;;10.77;3.65;;;;;;;15.12;86.82;101313.16;5060837;28;20188;-68
2023/06/01 03:16:41;;;;;;;7.88;2.72;;;;;;;15.26;86.76;101320.16;5078647;28;20498;-68
2023/06/01 03:19:06;;;;;;;8.30;3.05;;;;;;;15.46;85.72;101326.31;5059388;28;20043;-68
2023/06/01 03:21:32;;;;;;;11.10;2.92;;;;;;;15.70;84.95;101323.91;5061859;28;20443;-69
2023/06/01 03:23:58;;;;;;;5.97;2.60;;;;;;;15.77;83.92;101321.94;5078732;28;20025;-68
2023/06/01 03:26:25;;;;;;;7.13;2.45;;;;;;;15.94;83.39;101328.47;5078141;28;20089;-68
2023/06/01 03:28:50;;;;;;;9.80;2.80;;;;;;;16.17;82.64;101343.31;5044379;28;20047;-68
2023/06/01 03:31:16;;;;;;;5.80;2.22;;;;;;;16.37;81.12;101343.97;5041847;28;20375;-69
2023/06/01 03:33:42;;;;;;;7.80;2.50;;;;;;;16.39;79.96;101314.69;5058779;28;20032;-68
2023/06/01 03:36:07;;;;;;;9.65;2.50;;;;;;;16.55;78.84;101336.88;5058502;28;20141;-68
2023/06/01 03:38:36;;;;;;;5.88;2.38;;;;;;;16.60;78.34;101326.19;5058325;28;20380;-68
2023/06/01 03:41:02;;;;;;;9.60;2.60;;;;;;;16.77;76.99;101327.25;5077289;28;20028;-68
2023/06/01 03:43:27;;;;;;;8.80;2.40;;;;;;;16.80;75.96;101336.84;5059224;28;20569;-68
2023/06/01 03:45:53;;;;;;;7.80;2.30;;;;;;;17.29;73.78;101330.34;5077957;28;20040;-69
2023/06/01 03:48:18;;;;;;;5.25;2.15;;;;;;;17.53;71.78;101335.88;5060442;28;20020;-69
2023/06/01 03:50:45;;;;;;;5.65;2.22;;;;;;;17.75;70.83;101334.25;5061084;28;20115;-68
2023/06/01 03:53:10;;;;;;;7.03;2.22;;;;;;;18.11;69.03;101340.59;5079523;28;20078;-69
2023/06/01 03:55:36;;;;;;;6.85;2.15;;;;;;;18.20;68.07;101341.91;5044934;28;20025;-69
2023/06/01 03:58:02;;;;;;;4.97;2.15;;;;;;;18.33;66.69;101342.75;5061977;28;20043;-68
2023/06/01 04:00:28;;;;;;;4.35;1.92;;;;;;;18.66;65.35;101345.66;5062622;28;20027;-68
2023/06/01 04:02:56;;;;;;;4.95;2.00;;;;;;;18.87;64.34;101335.22;5062162;28;20045;-70
2023/06/01 04:05:23;;;;;;;4.82;1.85;;;;;;;18.93;63.46;101351.44;5060205;28;20093;-69
2023/06/01 04:07:50;;;;;;;7.57;1.98;;;;;;;18.96;62.66;101347.41;5077521;28;20040;-68
2023/06/01 04:10:16;;;;;;;5.30;1.95;;;;;;;19.12;61.58;101343.91;5058166;28;20021;-69
2023/06/01 04:12:43;;;;;;;7.88;1.90;;;;;;;19.42;60.68;101343.66;5080219;28;20514;-68
2023/06/01 04:15:13;;;;;;;3.38;1.58;;;;;;;19.40;59.84;101353.16;5074039;28;20033;-68
2023/06/01 04:17:40;;;;;;;3.20;1.65;;;;;;;19.39;59.13;101354.25;5062553;28;20052;-66
2023/06/01 04:20:09;;;;;;;5.95;1.65;;;;;;;19.17;58.84;101354.94;5059905;28;20024;-66
2023/06/01 04:22:35;;;;;;;4.25;1.67;;;;;;;19.10;58.81;101354.22;5081534;28;20719;-67
2023/06/01 04:25:01;;;;;;;7.47;1.50;;;;;;;18.90;58.90;101364.72;5096228;28;20024;-67
2023/06/01 04:27:27;;;;;;;1.90;1.50;;;;;;;19.19;58.14;101351.97;5079477;28;20047;-67
2023/06/01 04:29:53;;;;;;;2.03;1.30;;;;;;;19.55;56.83;101363.56;5095372;28;20020;-68
2023/06/01 04:32:21;;;;;;;2.72;1.38;;;;;;;19.32;56.61;101350.84;5096468;28;20506;-68
2023/06/01 04:34:50;;;;;;;4.57;1.58;;;;;;;19.55;56.45;101361.66;5096920;28;20028;-68
2023/06/01 04:37:22;;;;;;;4.68;1.20;;;;;;;19.03;56.90;101345.38;5061045;28;20057;-68
2023/06/01 04:39:51;;;;;;;3.08;1.20;;;;;;;19.23;56.56;101370.31;5062000;28;20100;-67
2023/06/01 04:42:18;;;;;;;4.20;1.35;;;;;;;19.38;55.72;101368.97;5101347;28;20032;-68
2023/06/01 04:44:46;;;;;;;3.95;1.30;;;;;;;19.15;55.88;101367.97;5084855;28;20096;-68
2023/06/01 04:47:12;;;;;;;4.38;1.35;;;;;;;19.22;55.97;101378.75;5081665;28;20574;-68
2023/06/01 04:49:41;;;;;;;1.60;1.00;;;;;;;19.13;55.84;101382.94;5077441;28;20035;-67
2023/06/01 04:52:07;;;;;;;3.88;1.10;;;;;;;18.59;56.68;101385.84;5067831;28;20032;-67
2023/06/01 04:54:33;;;;;;;1.63;1.00;;;;;;;18.90;56.35;101392.81;5074902;28;20024;-68
2023/06/01 04:56:58;;;;;;;3.25;0.90;;;;;;;18.70;56.39;101393.19;5079305;28;20024;-68
2023/06/01 04:59:23;;;;;;;2.97;1.10;;;;;;;18.76;56.19;101386.81;5066164;28;20032;-67
2023/06/01 05:01:49;;;;;;;4.93;0.95;;;;;;;18.65;55.64;101381.34;5078535;28;20049;-68
2023/06/01 05:04:14;;;;;;;2.88;0.80;;;;;;;18.42;56.41;101393.09;5078427;28;20086;-67
2023/06/01 05:06:40;;;;;;;4.22;0.93;;;;;;;18.48;56.48;101392.97;5061939;28;20024;-69
2023/06/01 05:09:05;;;;;;;2.97;0.80;;;;;;;18.20;56.68;101401.84;5078825;28;20028;-68
2023/06/01 05:11:31;;;;;;;2.92;0.80;;;;;;;18.15;56.54;101399.00;5076699;28;20024;-67
2023/06/01 05:14:01;;;;;;;5.82;0.80;;;;;;;18.04;56.86;101392.44;5077553;28;20487;-68
2023/06/01 05:16:27;;;;;;;2.40;0.80;;;;;;;18.11;56.63;101402.41;5059955;28;20020;-67
2023/06/01 05:18:53;;;;;;;2.63;0.95;;;;;;;18.51;56.34;101397.94;5076727;28;20043;-68
2023/06/01 05:21:18;;;;;;;3.33;0.82;;;;;;;17.56;57.01;101389.81;5040900;28;20040;-68
2023/06/01 05:23:44;;;;;;;5.05;0.88;;;;;;;17.61;57.75;101398.09;5078815;28;20090;-68
2023/06/01 05:26:10;;;;;;;2.45;0.85;;;;;;;17.59;57.28;101383.91;5079504;28;20024;-69
2023/06/01 05:28:35;;;;;;;1.80;1.00;;;;;;;17.96;57.29;101394.69;5082791;28;20035;-69
2023/06/01 05:31:01;;;;;;;2.60;0.98;;;;;;;17.88;56.76;101405.91;5083034;28;20036;-69
2023/06/01 05:33:27;;;;;;;3.17;0.80;;;;;;;17.43;57.68;101406.34;5032702;28;20021;-69
2023/06/01 05:35:52;;;;;;;3.22;1.08;;;;;;;17.43;57.17;101411.78;5082284;28;20025;-68
2023/06/01 05:38:18;;;;;;;2.67;0.90;;;;;;;17.55;57.39;101399.06;5047751;28;20111;-68
2023/06/01 05:40:44;;;;;;;2.72;0.82;;;;;;;17.55;57.67;101405.31;5063359;28;20124;-68
2023/06/01 05:43:11;;;;;;;7.95;0.93;;;;;;;17.50;57.86;101385.31;5064333;28;20113;-68
2023/06/01 05:45:37;;;;;;;2.17;0.85;;;;;;;17.67;57.42;101412.69;5082639;28;20099;-68
2023/06/01 05:48:02;;;;;;;4.07;0.98;;;;;;;17.63;57.17;101409.59;5083747;28;20032;-68
2023/06/01 05:50:28;;;;;;;2.35;0.90;;;;;;;17.32;57.23;101414.22;5082803;28;20504;-68
2023/06/01 05:52:54;;;;;;;3.33;0.80;;;;;;;17.87;56.46;101404.25;5062455;28;20394;-69
2023/06/01 05:55:19;;;;;;;1.55;0.80;;;;;;;17.47;56.31;101416.50;5078150;28;20077;-68
2023/06/01 05:57:45;;;;;;;2.63;0.70;;;;;;;17.57;56.28;101418.69;5063070;28;20079;-69
2023/06/01 06:00:15;;;;;;;4.97;0.80;;;;;;;17.67;55.46;101420.84;5086564;28;20150;-69
2023/06/01 06:02:42;;;;;;;3.17;0.63;;;;;;;17.40;52.56;101428.56;5066782;28;20056;-72
2023/06/01 06:05:09;;;;;;;1.23;0.50;;;;;;;17.29;52.97;101427.44;5051619;28;20029;-68
2023/06/01 06:07:34;;;;;;;2.05;0.50;;;;;;;17.14;52.18;101434.06;5048357;28;20028;-69
2023/06/01 06:10:00;;;;;;;2.50;0.70;;;;;;;17.23;51.45;101418.28;5081909;28;20081;-69
2023/06/01 06:12:27;;;;;;;1.85;0.60;;;;;;;17.32;51.16;101424.25;5064268;28;20104;-69
2023/06/01 06:14:53;;;;;;;2.80;0.60;;;;;;;17.32;50.55;101435.97;5083605;28;20061;-68
2023/06/01 06:17:19;;;;;;;2.15;0.43;;;;;;;17.55;48.91;101429.00;5077173;28;20028;-67
2023/06/01 06:19:44;;;;;;;3.47;0.60;;;;;;;17.24;48.76;101416.41;5066258;28;20039;-69
2023/06/01 06:22:10;;;;;;;1.55;0.63;;;;;;;17.60;48.43;101429.94;5092620;28;20017;-69
2023/06/01 06:24:36;;;;;;;1.23;0.40;;;;;;;17.59;48.33;101432.91;5072334;28;20028;-68
2023/06/01 06:27:03;;;;;;;1.35;0.55;;;;;;;17.72;47.65;101432.72;5060104;28;20039;-68
2023/06/01 06:29:29;;;;;;;2.45;0.50;;;;;;;17.98;46.55;101425.22;5062192;28;20663;-68
2023/06/01 06:31:54;;;;;;;7.80;0.52;;;;;;;17.52;46.12;101449.31;5080509;28;20035;-67
2023/06/01 06:34:20;;;;;;;3.10;0.60;;;;;;;17.64;46.19;101434.91;5080222;28;20244;-68
2023/06/01 06:36:46;;;;;;;2.03;0.50;;;;;;;17.57;45.93;101435.00;5061564;28;20028;-68
2023/06/01 06:39:12;;;;;;;0.90;0.45;;;;;;;17.92;44.42;101447.97;5079239;28;20035;-67
2023/06/01 06:41:40;;;;;;;3.72;0.40;;;;;;;17.56;44.10;101441.53;5062087;28;20039;-68
2023/06/01 06:44:05;;;;;;;2.90;0.40;;;;;;;17.44;43.88;101446.91;5062714;28;20368;-68
2023/06/01 06:46:31;;;;;;;1.52;0.40;;;;;;;17.74;43.53;101424.31;5063234;28;20043;-68
2023/06/01 06:48:56;;;;;;;4.35;0.40;;;;;;;17.58;43.98;101421.19;5083214;28;20029;-69
2023/06/01 06:51:22;;;;;;;1.77;0.47;;;;;;;17.87;43.42;101445.09;5046198;28;20033;-74
2023/06/01 06:53:47;;;;;;;4.72;0.50;;;;;;;18.15;42.90;101452.66;5059670;28;20028;-68
2023/06/01 06:56:13;;;;;;;2.80;0.30;;;;;;;18.10;42.79;101431.53;5067482;28;20043;-69
2023/06/01 06:58:38;;;;;;;1.85;0.40;;;;;;;18.20;42.55;101445.41;5088094;28;20036;-68
2023/06/01 07:01:05;;;;;;;0.47;0.30;;;;;;;17.79;41.29;101466.16;5082556;28;20029;-68
2023/06/01 07:03:31;;;;;;;2.10;0.63;;;;;;;18.08;41.51;101458.19;5046232;28;20029;-68
2023/06/01 07:05:57;;;;;;;1.02;0.30;;;;;;;18.01;40.44;101461.03;5062822;28;20037;-68
2023/06/01 07:08:23;;;;;;;2.15;0.35;;;;;;;18.03;40.84;101466.22;5080998;28;20055;-69
2023/06/01 07:10:48;;;;;;;1.70;0.30;;;;;;;17.81;39.27;101464.03;5062794;28;20029;-68
2023/06/01 07:13:14;;;;;;;2.67;0.57;;;;;;;17.82;39.53;101454.78;5046272;28;20032;-68
2023/06/01 07:15:39;;;;;;;3.80;0.50;;;;;;;18.38;39.77;101451.84;5062938;28;20498;-68
2023/06/01 07:18:06;;;;;;;4.80;0.40;;;;;;;18.48;39.75;101461.09;5063314;28;20029;-68
2023/06/01 07:20:31;;;;;;;1.27;0.40;;;;;;;18.06;39.28;101469.31;5081334;28;20024;-67
2023/06/01 07:22:57;;;;;;;0.65;0.30;;;;;;;18.01;38.37;101444.69;5080837;28;20025;-68
2023/06/01 07:25:23;;;;;;;2.90;0.63;;;;;;;17.64;37.73;101473.03;5079176;28;20107;-68
2023/06/01 07:27:49;;;;;;;2.85;0.50;;;;;;;18.00;37.49;101477.56;5061781;28;20036;-68
2023/06/01 07:30:15;;;;;;;5.00;0.40;;;;;;;17.91;36.75;101484.41;5080729;28;20016;-68
2023/06/01 07:32:41;;;;;;;3.22;0.35;;;;;;;17.71;36.91;101465.59;5080194;28;20036;-68
2023/06/01 07:35:07;;;;;;;4.20;0.50;;;;;;;17.92;36.60;101486.09;5061464;28;20027;-68
2023/06/01 07:37:33;;;;;;;3.05;0.40;;;;;;;17.93;36.63;101490.47;5061349;28;20487;-68
2023/06/01 07:39:58;;;;;;;2.00;0.50;;;;;;;17.93;36.12;101485.00;5061329;28;20070;-67
2023/06/01 07:42:24;;;;;;;2.97;0.40;;;;;;;18.07;35.40;101486.47;5044530;28;20495;-68
2023/06/01 07:44:50;;;;;;;1.73;0.50;;;;;;;18.03;36.24;101482.56;5079602;28;20466;-69
2023/06/01 07:47:16;;;;;;;2.97;0.30;;;;;;;18.16;35.57;101481.53;5040941;28;20024;-68
2023/06/01 07:49:41;;;;;;;1.80;0.43;;;;;;;18.43;35.79;101484.66;5076383;28;20032;-67
2023/06/01 07:52:07;;;;;;;2.47;0.40;;;;;;;18.00;34.92;101510.25;5061128;28;20029;-68
2023/06/01 07:54:36;;;;;;;3.78;0.40;;;;;;;18.04;34.72;101495.09;5079881;28;20030;-68
2023/06/01 07:57:02;;;;;;;1.85;0.65;;;;;;;18.06;35.61;101498.44;5061798;28;20024;-68
2023/06/01 07:59:29;;;;;;;5.28;0.57;;;;;;;17.69;35.11;101498.50;5060917;28;20113;-68
2023/06/01 08:01:56;;;;;;;1.42;0.40;;;;;;;17.98;35.82;101490.59;5057629;28;20055;-68
2023/06/01 08:04:22;;;;;;;2.55;0.40;;;;;;;18.06;34.58;101493.00;5058246;28;20036;-68
2023/06/01 08:06:48;;;;;;;3.03;0.40;;;;;;;18.04;34.98;101495.09;5058451;28;20033;-68
2023/06/01 08:09:13;;;;;;;3.50;0.43;;;;;;;18.04;34.98;101489.66;5055925;28;20029;-68
2023/06/01 08:11:39;;;;;;;3.28;0.40;;;;;;;18.15;34.77;101493.50;5057939;28;20116;-68
2023/06/01 08:14:08;;;;;;;2.92;0.40;;;;;;;18.28;34.67;101502.31;5059267;28;20102;-70
2023/06/01 08:16:34;;;;;;;3.65;0.35;;;;;;;18.22;35.32;101502.41;5059158;28;20036;-68
2023/06/01 08:19:00;;;;;;;3.28;0.45;;;;;;;18.12;35.01;101499.41;5060522;28;20491;-68
2023/06/01 08:21:26;;;;;;;2.47;0.40;;;;;;;18.24;34.62;101498.34;5057975;28;20021;-68
2023/06/01 08:23:54;;;;;;;2.83;0.40;;;;;;;18.20;34.76;101494.44;5058323;28;20025;-68
2023/06/01 08:26:20;;;;;;;1.42;0.40;;;;;;;18.43;34.82;101481.94;5057190;28;20486;-68
2023/06/01 08:28:52;;;;;;;1.92;0.40;;;;;;;18.43;35.60;101515.47;5058955;28;20036;-68
2023/06/01 08:31:23;;;;;;;1.92;0.60;;;;;;;18.93;34.94;101516.97;5057361;28;20060;-68
2023/06/01 08:33:54;;;;;;;3.22;0.40;;;;;;;18.93;35.45;101527.88;5058004;28;20071;-68
2023/06/01 08:36:20;;;;;;;2.50;0.40;;;;;;;19.22;36.24;101505.09;5058332;28;20126;-67
2023/06/01 08:38:46;;;;;;;1.42;0.50;;;;;;;19.12;36.05;101518.50;5058301;28;20029;-68
2023/06/01 08:41:25;;;;;;;2.42;0.30;;;;;;;19.07;34.79;101506.63;5057323;28;20021;-68
2023/06/01 08:43:58;;;;;;;0.95;0.40;;;;;;;18.61;35.53;101495.47;5056899;28;20104;-68
2023/06/01 08:46:25;;;;;;;2.38;0.40;;;;;;;18.73;35.96;101504.50;5057551;28;20071;-67
2023/06/01 08:48:55;;;;;;;1.73;0.35;;;;;;;18.73;35.51;101515.41;5056831;28;20029;-67
2023/06/01 08:51:22;;;;;;;7.20;0.50;;;;;;;18.51;35.91;101533.41;5058289;28;20044;-68
2023/06/01 08:53:49;;;;;;;2.55;0.40;;;;;;;18.77;35.82;101515.78;5058225;28;20051;-68
2023/06/01 08:56:15;;;;;;;3.22;0.40;;;;;;;18.70;35.82;101559.47;5056947;28;20036;-68
2023/06/01 08:58:41;;;;;;;1.25;0.40;;;;;;;19.02;35.58;101524.56;5056348;28;20132;-68
2023/06/01 09:01:07;;;;;;;1.85;0.55;;;;;;;19.25;35.48;101522.88;5059535;28;20044;-68
2023/06/01 09:03:32;;;;;;;1.35;0.40;;;;;;;18.92;35.55;101528.94;5078303;28;20403;-68
2023/06/01 09:05:58;;;;;;;1.75;0.47;;;;;;;18.55;36.02;101507.31;5043887;28;20032;-68
2023/06/01 09:08:24;;;;;;;1.92;0.60;;;;;;;18.65;36.01;101558.53;5043533;28;20028;-68
2023/06/01 09:10:50;;;;;;;1.80;0.60;;;;;;;18.37;35.48;101553.72;5078162;28;20024;-68
2023/06/01 09:13:31;;;;;;;2.58;0.65;;;;;;;18.68;36.25;101539.81;5060207;28;20098;-67
2023/06/01 09:15:57;;;;;;;5.25;0.60;;;;;;;18.26;36.47;101556.19;5060651;28;20088;-69
2023/06/01 09:18:22;;;;;;;0.75;0.40;;;;;;;18.59;35.89;101537.66;5043724;28;20129;-68
2023/06/01 09:20:48;;;;;;;2.53;0.40;;;;;;;18.71;35.41;101536.63;5044167;28;20092;-68
2023/06/01 09:23:24;;;;;;;4.05;0.50;;;;;;;18.80;34.71;101541.75;5060380;28;20119;-69
2023/06/01 09:26:06;;;;;;;1.23;0.50;;;;;;;19.14;35.56;101513.66;5078184;28;20037;-68
2023/06/01 09:28:54;;;;;;;5.05;0.70;;;;;;;19.40;34.95;101538.75;5078122;28;20372;-72
2023/06/01 09:31:40;;;;;;;3.13;0.70;;;;;;;19.27;34.40;101519.91;5077815;28;20095;-68
2023/06/01 09:34:06;;;;;;;7.13;0.80;;;;;;;19.24;34.85;101530.25;5058363;28;20029;-68
2023/06/01 09:36:32;;;;;;;1.05;0.60;;;;;;;18.77;35.38;101548.50;5075323;28;20407;-68
2023/06/01 09:39:09;;;;;;;0.82;0.52;;;;;;;18.81;34.82;101546.13;5078095;28;20025;-69
2023/06/01 09:41:49;;;;;;;1.63;0.60;;;;;;;19.04;34.48;101532.50;5078601;28;20028;-67
2023/06/01 09:44:23;;;;;;;3.35;0.68;;;;;;;19.18;34.26;101542.09;5079009;28;20052;-70
2023/06/01 09:46:50;;;;;;;2.28;0.73;;;;;;;19.51;33.96;101528.91;5078466;28;20024;-67
2023/06/01 09:49:28;;;;;;;3.78;0.70;;;;;;;20.02;33.82;101524.47;5073672;28;20071;-68
2023/06/01 09:52:08;;;;;;;6.05;0.70;;;;;;;19.61;32.61;101529.94;5073715;28;20074;-68
2023/06/01 09:54:44;;;;;;;1.17;0.52;;;;;;;19.18;32.79;101517.56;5074205;28;20028;-68
2023/06/01 09:57:11;;;;;;;5.20;0.60;;;;;;;19.08;33.79;101532.88;5076268;28;20363;-68
2023/06/01 09:59:44;;;;;;;3.53;0.52;;;;;;;19.50;33.75;101522.59;5042193;28;20486;-68
2023/06/01 10:02:18;;;;;;;1.80;0.80;;;;;;;19.59;33.37;101529.34;5077215;28;20040;-68
2023/06/01 10:04:51;;;;;;;2.90;0.83;;;;;;;19.70;33.12;101531.25;5059115;28;20128;-68
2023/06/01 10:07:17;;;;;;;1.83;0.65;;;;;;;19.65;33.73;101533.03;5074923;28;20041;-68
2023/06/01 10:09:47;;;;;;;1.52;0.77;;;;;;;19.29;34.03;101528.69;5027199;28;20086;-68
2023/06/01 10:12:13;;;;;;;2.30;0.70;;;;;;;19.08;33.86;101521.97;5061055;28;20025;-69
2023/06/01 10:14:38;;;;;;;2.15;0.70;;;;;;;19.13;33.88;101528.34;5081511;28;20134;-71
2023/06/01 10:17:05;;;;;;;3.35;0.70;;;;;;;19.00;34.22;101550.41;5081250;28;20047;-68
2023/06/01 10:19:30;;;;;;;1.83;0.75;;;;;;;19.22;34.49;101535.09;5063567;28;20395;-68
2023/06/01 10:21:59;;;;;;;1.77;0.70;;;;;;;19.55;33.81;101539.06;5063506;28;20579;-68
2023/06/01 10:24:26;;;;;;;1.05;0.70;;;;;;;19.75;33.69;101532.41;5081495;28;20094;-69
2023/06/01 10:27:20;;;;;;;3.28;0.80;;;;;;;20.06;33.37;101547.47;5081542;28;20032;-68
2023/06/01 10:29:46;;;;;;;4.03;0.77;;;;;;;19.60;33.54;101547.41;5081371;28;20024;-68
2023/06/01 10:32:37;;;;;;;2.80;0.80;;;;;;;19.47;33.98;101536.75;5063774;28;20039;-68
2023/06/01 10:35:06;;;;;;;2.55;0.65;;;;;;;19.67;33.15;101544.56;5062766;28;20036;-68
2023/06/01 10:37:32;;;;;;;2.60;0.55;;;;;;;19.64;33.46;101547.78;5080825;28;20067;-69
2023/06/01 10:40:16;;;;;;;3.55;0.50;;;;;;;19.15;33.49;101547.22;5062354;28;20032;-68
2023/06/01 10:42:43;;;;;;;1.38;0.60;;;;;;;19.08;32.97;101582.78;5079397;28;20103;-68
2023/06/01 10:45:40;;;;;;;2.55;0.60;;;;;;;19.52;33.34;101546.94;5079625;28;20031;-68
2023/06/01 10:48:10;;;;;;;16.48;1.08;;;;;;;19.66;33.10;101543.69;5062949;28;20024;-68
2023/06/01 10:50:37;;;;;;;3.92;0.75;;;;;;;19.32;33.39;101536.41;5063074;28;20020;-68
2023/06/01 10:53:25;;;;;;;2.92;0.40;;;;;;;19.16;33.92;101552.41;5062113;28;20447;-68
2023/06/01 10:56:26;;;;;;;1.42;0.60;;;;;;;19.12;32.83;101567.59;5080873;28;20028;-68
2023/06/01 10:59:07;;;;;;;0.85;0.40;;;;;;;19.29;34.10;101564.16;5079039;28;20103;-68
2023/06/01 11:01:41;;;;;;;2.13;0.50;;;;;;;19.38;32.72;101541.72;5078028;28;20052;-68
2023/06/01 11:04:08;;;;;;;1.83;0.50;;;;;;;19.72;32.47;101550.09;5078411;28;20020;-67
2023/06/01 11:06:39;;;;;;;1.10;0.40;;;;;;;19.56;32.90;101581.69;5085598;28;20361;-68
2023/06/01 11:09:10;;;;;;;1.70;0.47;;;;;;;19.77;32.83;101558.41;5082279;28;20028;-68
2023/06/01 11:11:48;;;;;;;4.43;0.70;;;;;;;19.90;32.38;101551.81;5062891;28;20052;-68
2023/06/01 11:14:14;;;;;;;2.53;0.60;;;;;;;19.78;32.32;101572.91;5080829;28;20016;-71
2023/06/01 11:16:40;;;;;;;3.63;0.43;;;;;;;20.05;32.61;101543.94;5080277;28;20050;-68
2023/06/01 11:19:08;;;;;;;0.98;0.40;;;;;;;19.99;32.61;101542.16;5061936;28;20029;-68
2023/06/01 11:21:44;;;;;;;3.72;0.60;;;;;;;19.66;32.13;101535.50;5061743;28;20107;-68
2023/06/01 11:24:12;;;;;;;3.08;0.50;;;;;;;19.52;32.48;101566.84;5077867;28;20035;-68
2023/06/01 11:26:46;;;;;;;2.35;0.47;;;;;;;19.15;32.11;101542.59;5080205;28;20029;-68
2023/06/01 11:29:17;;;;;;;0.57;0.30;;;;;;;19.70;32.40;101560.44;5061552;28;20040;-68